createdAt,value
2019-03-24T00:02:12.642Z,96.28
2019-03-24T00:04:43.204Z,96.80
2019-03-24T00:07:13.726Z,97.10
2019-03-24T00:09:44.357Z,98.14
2019-03-24T00:12:14.807Z,97.60
2019-03-24T00:14:45.307Z,98.72
2019-03-24T00:17:15.754Z,98.83
2019-03-24T00:19:46.305Z,99.08
2019-03-24T00:22:17.218Z,99.27
2019-03-24T00:24:47.785Z,98.79
2019-03-24T00:27:18.398Z,99.24
2019-03-24T00:29:49.347Z,99.20
2019-03-24T00:32:19.801Z,99.67
2019-03-24T00:34:50.393Z,99.71
2019-03-24T00:37:20.907Z,100.00
2019-03-24T00:39:51.453Z,100.00
2019-03-24T00:42:21.934Z,100.00
2019-03-24T00:44:52.475Z,99.59
2019-03-24T00:47:22.919Z,100.00
2019-03-24T00:49:53.474Z,100.00
2019-03-24T00:52:24.002Z,100.00
2019-03-24T00:54:54.598Z,100.00
2019-03-24T00:57:25.029Z,100.00
2019-03-24T00:59:55.578Z,100.00
2019-03-24T01:02:26.037Z,100.00
2019-03-24T01:04:56.597Z,100.00
2019-03-24T01:07:27.053Z,100.00
2019-03-24T01:09:57.673Z,100.00
2019-03-24T01:12:28.161Z,100.00
2019-03-24T01:15:00.108Z,100.00
2019-03-24T01:17:30.761Z,100.00
2019-03-24T01:20:01.321Z,100.00
2019-03-24T01:22:31.921Z,100.00
2019-03-24T01:25:03.761Z,100.00
2019-03-24T01:27:34.347Z,100.00
2019-03-24T01:30:07.259Z,100.00
2019-03-24T01:32:38.384Z,100.00
2019-03-24T01:35:08.953Z,100.00
2019-03-24T01:37:39.462Z,100.00
2019-03-24T01:40:09.948Z,100.00
2019-03-24T01:42:40.564Z,100.00
2019-03-24T01:45:11.170Z,100.00
2019-03-24T01:47:42.674Z,100.00
2019-03-24T01:50:13.285Z,100.00
2019-03-24T01:52:43.819Z,100.00
2019-03-24T01:55:14.318Z,100.00
2019-03-24T01:57:45.172Z,100.00
2019-03-24T02:00:15.726Z,100.00
2019-03-24T02:02:46.324Z,100.00
2019-03-24T02:05:16.813Z,100.00
2019-03-24T02:07:47.346Z,100.00
2019-03-24T02:10:17.889Z,100.00
2019-03-24T02:12:48.479Z,100.00
2019-03-24T02:15:19.009Z,100.00
2019-03-24T02:17:49.534Z,100.00
2019-03-24T02:20:20.220Z,100.00
2019-03-24T02:22:50.756Z,100.00
2019-03-24T02:25:21.248Z,100.00
2019-03-24T02:27:51.796Z,100.00
2019-03-24T02:30:22.338Z,100.00
2019-03-24T02:32:52.893Z,100.00
2019-03-24T02:35:23.376Z,100.00
2019-03-24T02:37:53.847Z,100.00
2019-03-24T02:40:24.658Z,100.00
2019-03-24T02:42:55.119Z,100.00
2019-03-24T02:45:25.683Z,100.00
2019-03-24T02:47:56.133Z,100.00
2019-03-24T02:50:28.224Z,100.00
2019-03-24T02:52:58.659Z,100.00
2019-03-24T02:55:29.221Z,100.00
2019-03-24T02:58:00.745Z,100.00
2019-03-24T03:00:31.304Z,100.00
2019-03-24T03:03:01.749Z,100.00
2019-03-24T03:05:32.295Z,100.00
2019-03-24T03:08:02.761Z,100.00
2019-03-24T03:10:33.344Z,100.00
2019-03-24T03:13:03.869Z,100.00
2019-03-24T03:15:34.616Z,100.00
2019-03-24T03:18:05.144Z,100.00
2019-03-24T03:20:35.619Z,100.00
2019-03-24T03:23:06.126Z,100.00
2019-03-24T03:25:36.632Z,100.00
2019-03-24T03:28:07.137Z,100.00
2019-03-24T03:30:37.643Z,100.00
2019-03-24T03:33:08.295Z,100.00
2019-03-24T03:35:38.775Z,100.00
2019-03-24T03:38:09.301Z,100.00
2019-03-24T03:40:39.785Z,100.00
2019-03-24T03:43:10.302Z,100.00
2019-03-24T03:45:40.876Z,100.00
2019-03-24T03:48:11.422Z,100.00
2019-03-24T03:50:41.969Z,100.00
2019-03-24T03:53:12.468Z,100.00
2019-03-24T03:55:43.017Z,100.00
2019-03-24T03:58:13.510Z,100.00
2019-03-24T04:00:44.085Z,100.00
2019-03-24T04:03:14.651Z,100.00
2019-03-24T04:05:45.286Z,100.00
2019-03-24T04:08:15.804Z,100.00
2019-03-24T04:10:46.419Z,100.00
2019-03-24T04:13:16.980Z,100.00
2019-03-24T04:15:47.644Z,100.00
2019-03-24T04:18:18.236Z,100.00
2019-03-24T04:20:48.719Z,100.00
2019-03-24T04:23:19.266Z,100.00
2019-03-24T04:25:49.761Z,100.00
2019-03-24T04:28:20.308Z,100.00
2019-03-24T04:30:50.881Z,100.00
2019-03-24T04:33:21.342Z,100.00
2019-03-24T04:35:51.902Z,100.00
2019-03-24T04:38:22.421Z,100.00
2019-03-24T04:40:52.973Z,100.00
2019-03-24T04:43:23.426Z,100.00
2019-03-24T04:45:53.914Z,100.00
2019-03-24T04:48:24.463Z,100.00
2019-03-24T04:50:56.011Z,100.00
2019-03-24T04:53:26.463Z,100.00
2019-03-24T04:55:56.939Z,100.00
2019-03-24T04:58:27.404Z,100.00
2019-03-24T05:00:57.891Z,100.00
2019-03-24T05:03:28.415Z,100.00
2019-03-24T05:05:58.907Z,100.00
2019-03-24T05:08:29.350Z,100.00
2019-03-24T05:10:59.868Z,100.00
2019-03-24T05:13:30.324Z,100.00
2019-03-24T05:16:00.797Z,100.00
2019-03-24T05:18:31.264Z,100.00
2019-03-24T05:21:01.745Z,100.00
2019-03-24T05:23:32.399Z,100.00
2019-03-24T05:26:02.898Z,100.00
2019-03-24T05:28:33.441Z,100.00
2019-03-24T05:31:03.978Z,100.00
2019-03-24T05:33:34.445Z,100.00
2019-03-24T05:36:04.929Z,100.00
2019-03-24T05:38:35.432Z,100.00
2019-03-24T05:41:06.380Z,100.00
2019-03-24T05:43:37.747Z,100.00
2019-03-24T05:46:08.256Z,100.00
2019-03-24T05:48:38.809Z,100.00
2019-03-24T05:51:10.150Z,100.00
2019-03-24T05:53:41.976Z,100.00
2019-03-24T05:56:12.640Z,100.00
2019-03-24T05:58:43.158Z,100.00
2019-03-24T06:01:13.668Z,100.00
2019-03-24T06:03:44.199Z,100.00
2019-03-24T06:06:14.674Z,100.00
2019-03-24T06:08:45.191Z,100.00
2019-03-24T06:11:15.891Z,100.00
2019-03-24T06:13:46.326Z,100.00
2019-03-24T06:16:17.979Z,100.00
2019-03-24T06:18:48.428Z,100.00
2019-03-24T06:21:18.919Z,100.00
2019-03-24T06:23:49.518Z,100.00
2019-03-24T06:26:20.300Z,100.00
2019-03-24T06:28:50.745Z,100.00
2019-03-24T06:31:21.218Z,100.00
2019-03-24T06:33:51.669Z,100.00
2019-03-24T06:36:23.084Z,100.00
2019-03-24T06:38:53.619Z,100.00
2019-03-24T06:41:24.282Z,100.00
2019-03-24T06:43:54.991Z,100.00
2019-03-24T06:46:25.604Z,100.00
2019-03-24T06:48:56.122Z,100.00
2019-03-24T06:51:26.730Z,100.00
2019-03-24T06:54:05.376Z,99.78
2019-03-24T06:56:35.915Z,100.00
2019-03-24T06:59:06.366Z,98.19
2019-03-24T07:01:43.805Z,97.81
2019-03-24T07:04:18.218Z,97.49
2019-03-24T07:06:48.861Z,96.52
2019-03-24T07:09:19.395Z,94.29
2019-03-24T07:11:49.954Z,95.20
2019-03-24T07:14:20.484Z,93.04
2019-03-24T07:16:51.001Z,93.13
2019-03-24T07:19:21.611Z,90.32
2019-03-24T07:21:52.198Z,88.44
2019-03-24T07:24:22.650Z,87.84
2019-03-24T07:26:53.118Z,87.22
2019-03-24T07:29:23.576Z,83.97
2019-03-24T07:31:54.145Z,84.05
2019-03-24T07:34:24.889Z,81.31
2019-03-24T07:36:55.437Z,81.89
2019-03-24T07:39:25.977Z,81.12
2019-03-24T07:41:56.449Z,80.38
2019-03-24T07:44:27.107Z,77.43
2019-03-24T07:46:58.711Z,77.38
2019-03-24T07:49:29.228Z,75.39
2019-03-24T07:52:00.887Z,74.74
2019-03-24T07:54:31.442Z,75.67
2019-03-24T07:57:02.048Z,77.12
2019-03-24T07:59:32.503Z,74.21
2019-03-24T08:02:03.059Z,74.42
2019-03-24T08:04:33.557Z,73.80
2019-03-24T08:07:04.020Z,71.32
2019-03-24T08:09:34.537Z,66.99
2019-03-24T08:12:05.180Z,60.03
2019-03-24T08:14:37.289Z,58.32
2019-03-24T08:17:07.832Z,58.17
2019-03-24T08:19:38.435Z,58.32
2019-03-24T08:22:08.893Z,54.14
2019-03-24T08:24:39.462Z,52.62
2019-03-24T08:27:10.139Z,53.19
2019-03-24T08:29:40.602Z,53.63
2019-03-24T08:32:11.291Z,51.08
2019-03-24T08:34:41.787Z,53.46
2019-03-24T08:37:12.323Z,54.13
2019-03-24T08:39:42.836Z,54.60
2019-03-24T08:42:13.446Z,52.80
2019-03-24T08:44:43.973Z,51.16
2019-03-24T08:47:14.500Z,53.73
2019-03-24T08:49:45.017Z,53.33
2019-03-24T08:52:15.663Z,51.24
2019-03-24T08:54:46.090Z,50.94
2019-03-24T08:57:16.620Z,51.24
2019-03-24T08:59:47.207Z,48.66
2019-03-24T09:02:17.675Z,50.95
2019-03-24T09:04:48.284Z,47.65
2019-03-24T09:07:18.829Z,46.87
2019-03-24T09:09:49.357Z,46.00
2019-03-24T09:12:19.833Z,43.35
2019-03-24T09:14:50.429Z,44.69
2019-03-24T09:17:20.977Z,42.45
2019-03-24T09:19:51.555Z,43.47
2019-03-24T09:22:22.082Z,42.05
2019-03-24T09:24:52.604Z,39.92
2019-03-24T09:27:23.173Z,43.37
2019-03-24T09:29:54.767Z,45.80
2019-03-24T09:32:25.330Z,46.29
2019-03-24T09:34:55.839Z,45.09
2019-03-24T09:37:26.380Z,43.76
2019-03-24T09:39:56.890Z,45.10
2019-03-24T09:42:27.360Z,47.37
2019-03-24T09:44:59.085Z,45.22
2019-03-24T09:47:29.614Z,45.84
2019-03-24T09:50:00.054Z,46.22
2019-03-24T09:52:31.241Z,46.57
2019-03-24T09:55:01.969Z,47.54
2019-03-24T09:57:32.570Z,46.04
2019-03-24T10:00:05.281Z,41.89
2019-03-24T10:02:36.180Z,42.03
2019-03-24T10:05:06.702Z,40.63
2019-03-24T10:07:38.387Z,42.56
2019-03-24T10:10:09.971Z,44.80
2019-03-24T10:12:40.521Z,44.84
2019-03-24T10:15:11.965Z,46.61
2019-03-24T10:17:42.931Z,45.78
2019-03-24T10:20:13.526Z,44.14
2019-03-24T10:22:44.110Z,42.69
2019-03-24T10:25:14.702Z,45.96
2019-03-24T10:27:45.165Z,45.48
2019-03-24T10:30:15.905Z,45.85
2019-03-24T10:32:46.490Z,45.57
2019-03-24T10:35:17.123Z,45.65
2019-03-24T10:37:47.677Z,46.18
2019-03-24T10:40:28.078Z,43.00
2019-03-24T10:42:50.464Z,42.02
2019-03-24T10:45:21.043Z,41.58
2019-03-24T10:47:51.591Z,42.13
2019-03-24T10:50:22.145Z,44.28
2019-03-24T10:52:52.718Z,42.84
2019-03-24T10:55:23.213Z,42.24
2019-03-24T10:57:53.770Z,43.82
2019-03-24T11:00:38.923Z,44.67
2019-03-24T11:03:09.508Z,43.87
2019-03-24T11:05:40.028Z,42.62
2019-03-24T11:08:10.570Z,44.10
2019-03-24T11:10:41.097Z,43.01
2019-03-24T11:13:11.709Z,42.07
2019-03-24T11:15:42.268Z,41.50
2019-03-24T11:18:12.794Z,40.21
2019-03-24T11:20:43.309Z,39.42
2019-03-24T11:23:13.781Z,39.83
2019-03-24T11:25:44.220Z,40.87
2019-03-24T11:28:14.736Z,39.92
2019-03-24T11:30:45.262Z,38.82
2019-03-24T11:33:15.729Z,38.54
2019-03-24T11:35:46.150Z,37.88
2019-03-24T11:38:16.991Z,37.00
2019-03-24T11:40:47.552Z,36.21
2019-03-24T11:43:18.343Z,36.74
2019-03-24T11:45:48.887Z,33.07
2019-03-24T11:48:19.460Z,33.89
2019-03-24T11:50:49.988Z,33.83
2019-03-24T11:53:20.441Z,34.40
2019-03-24T11:55:50.945Z,33.61
2019-03-24T11:58:21.654Z,33.81
2019-03-24T12:00:52.201Z,33.61
2019-03-24T12:03:22.642Z,33.92
2019-03-24T12:05:53.250Z,34.00
2019-03-24T12:08:23.849Z,34.52
2019-03-24T12:10:55.090Z,33.09
2019-03-24T12:13:25.609Z,32.80
2019-03-24T12:15:56.297Z,32.94
2019-03-24T12:18:26.800Z,31.77
2019-03-24T12:20:57.343Z,31.71
2019-03-24T12:23:27.867Z,26.00
2019-03-24T12:25:58.386Z,22.93
2019-03-24T12:28:28.959Z,22.79
2019-03-24T12:30:59.442Z,21.38
2019-03-24T12:33:30.057Z,22.21
2019-03-24T12:36:00.699Z,20.04
2019-03-24T12:38:31.123Z,19.23
2019-03-24T12:41:01.604Z,16.17
2019-03-24T12:43:32.165Z,16.54
2019-03-24T12:46:02.663Z,14.77
2019-03-24T12:48:33.166Z,13.95
2019-03-24T12:51:04.692Z,15.47
2019-03-24T12:53:36.267Z,14.77
2019-03-24T12:56:08.410Z,14.21
2019-03-24T12:58:38.964Z,13.83
2019-03-24T13:01:09.600Z,13.77
2019-03-24T13:03:40.329Z,15.30
2019-03-24T13:06:10.864Z,15.45
2019-03-24T13:08:42.668Z,15.07
2019-03-24T13:11:18.050Z,14.54
2019-03-24T13:13:48.480Z,13.83
2019-03-24T13:16:18.982Z,13.81
2019-03-24T13:18:49.497Z,12.87
2019-03-24T13:21:20.054Z,15.98
2019-03-24T13:23:50.571Z,18.35
2019-03-24T13:26:21.156Z,19.80
2019-03-24T13:28:51.680Z,19.20
2019-03-24T13:31:22.293Z,20.00
2019-03-24T13:33:54.980Z,19.71
2019-03-24T13:36:25.453Z,21.33
2019-03-24T13:38:56.043Z,18.35
2019-03-24T13:41:26.597Z,16.85
2019-03-24T13:43:57.041Z,15.04
2019-03-24T13:46:27.614Z,14.60
2019-03-24T13:48:58.137Z,14.00
2019-03-24T13:51:28.688Z,14.86
2019-03-24T13:54:00.090Z,16.06
2019-03-24T13:56:30.756Z,15.02
2019-03-24T13:59:01.351Z,14.06
2019-03-24T14:01:31.955Z,12.90
2019-03-24T14:04:02.524Z,12.32
2019-03-24T14:06:33.146Z,11.78
2019-03-24T14:09:04.661Z,11.10
2019-03-24T14:11:35.242Z,12.58
2019-03-24T14:14:05.697Z,11.64
2019-03-24T14:16:36.225Z,11.02
2019-03-24T14:19:06.669Z,10.07
2019-03-24T14:21:37.277Z,10.07
2019-03-24T14:24:07.814Z,8.99
2019-03-24T14:26:38.291Z,10.31
2019-03-24T14:29:08.799Z,8.81
2019-03-24T14:31:39.269Z,10.32
2019-03-24T14:34:09.863Z,12.54
2019-03-24T14:36:40.338Z,14.01
2019-03-24T14:39:10.769Z,13.84
2019-03-24T14:41:41.402Z,15.31
2019-03-24T14:44:12.894Z,14.24
2019-03-24T14:46:43.665Z,15.46
2019-03-24T14:49:14.109Z,16.61
2019-03-24T14:51:44.641Z,15.76
2019-03-24T14:54:15.224Z,16.55
2019-03-24T14:56:45.757Z,17.94
2019-03-24T14:59:16.206Z,19.14
2019-03-24T15:01:46.758Z,20.28
2019-03-24T15:04:17.392Z,21.19
2019-03-24T15:06:48.261Z,19.20
2019-03-24T15:09:18.821Z,19.45
2019-03-24T15:11:49.423Z,22.47
2019-03-24T15:14:19.937Z,22.17
2019-03-24T15:16:51.403Z,23.20
2019-03-24T15:19:21.925Z,23.07
2019-03-24T15:21:52.424Z,22.82
2019-03-24T15:24:22.865Z,22.42
2019-03-24T15:26:53.414Z,23.06
2019-03-24T15:29:23.861Z,24.32
2019-03-24T15:31:54.512Z,24.70
2019-03-24T15:34:26.326Z,23.96
2019-03-24T15:36:57.864Z,25.26
2019-03-24T15:39:28.368Z,25.23
2019-03-24T15:41:58.913Z,25.70
2019-03-24T15:44:29.554Z,26.49
2019-03-24T15:47:00.226Z,27.52
2019-03-24T15:49:30.727Z,27.07
2019-03-24T15:52:02.249Z,26.38
2019-03-24T15:54:32.811Z,26.79
2019-03-24T15:57:03.290Z,26.48
2019-03-24T15:59:33.771Z,27.31
2019-03-24T16:02:04.420Z,27.43
2019-03-24T16:04:34.944Z,27.33
2019-03-24T16:07:05.424Z,27.24
2019-03-24T16:09:36.121Z,26.98
2019-03-24T16:12:06.654Z,27.50
2019-03-24T16:14:37.187Z,27.41
2019-03-24T16:17:07.666Z,29.39
2019-03-24T16:19:38.280Z,28.37
2019-03-24T16:22:08.904Z,28.46
2019-03-24T16:24:39.371Z,29.29
2019-03-24T16:27:09.850Z,29.52
2019-03-24T16:29:40.422Z,31.37
2019-03-24T16:32:10.987Z,38.75
2019-03-24T16:34:41.566Z,31.11
2019-03-24T16:37:12.553Z,31.96
2019-03-24T16:39:43.220Z,46.01
2019-03-24T16:42:13.749Z,32.42
2019-03-24T16:44:44.270Z,32.01
2019-03-24T16:47:14.727Z,39.00
2019-03-24T16:49:45.256Z,32.48
2019-03-24T16:52:15.965Z,32.50
2019-03-24T16:54:46.456Z,32.76
2019-03-24T16:57:17.200Z,33.06
2019-03-24T16:59:47.637Z,34.67
2019-03-24T17:02:18.141Z,46.21
2019-03-24T17:04:49.359Z,34.24
2019-03-24T17:07:19.832Z,33.28
2019-03-24T17:09:50.340Z,33.98
2019-03-24T17:12:21.050Z,34.39
2019-03-24T17:14:51.668Z,34.33
2019-03-24T17:17:22.233Z,34.87
2019-03-24T17:19:52.765Z,36.00
2019-03-24T17:22:23.273Z,35.01
2019-03-24T17:24:53.919Z,44.13
2019-03-24T17:27:24.454Z,42.26
2019-03-24T17:29:54.981Z,37.68
2019-03-24T17:32:25.515Z,38.26
2019-03-24T17:34:56.042Z,36.48
2019-03-24T17:37:26.542Z,36.40
2019-03-24T17:39:57.162Z,49.41
2019-03-24T17:42:28.721Z,56.88
2019-03-24T17:44:59.243Z,52.66
2019-03-24T17:47:30.108Z,60.28
2019-03-24T17:50:00.608Z,51.34
2019-03-24T17:52:31.134Z,41.33
2019-03-24T17:55:01.645Z,54.69
2019-03-24T17:57:32.192Z,47.18
2019-03-24T18:00:07.167Z,42.63
2019-03-24T18:02:38.284Z,48.71
2019-03-24T18:05:08.900Z,41.61
2019-03-24T18:07:39.445Z,56.63
2019-03-24T18:10:10.556Z,40.89
2019-03-24T18:12:41.099Z,59.40
2019-03-24T18:15:12.782Z,56.07
2019-03-24T18:17:43.319Z,53.25
2019-03-24T18:20:17.083Z,51.93
2019-03-24T18:22:47.701Z,41.72
2019-03-24T18:25:18.203Z,42.61
2019-03-24T18:27:48.665Z,43.58
2019-03-24T18:30:19.118Z,40.60
2019-03-24T18:32:52.942Z,41.16
2019-03-24T18:35:41.020Z,40.51
2019-03-24T18:38:12.399Z,41.60
2019-03-24T18:40:42.979Z,41.46
2019-03-24T18:43:13.521Z,41.99
2019-03-24T18:45:44.010Z,42.51
2019-03-24T18:48:14.891Z,43.23
2019-03-24T18:50:45.399Z,44.71
2019-03-24T18:53:15.942Z,44.73
2019-03-24T18:55:46.466Z,44.21
2019-03-24T18:58:18.095Z,42.43
2019-03-24T19:00:48.622Z,41.23
2019-03-24T19:03:19.074Z,41.09
2019-03-24T19:05:49.714Z,40.78
2019-03-24T19:08:20.278Z,41.05
2019-03-24T19:10:50.799Z,42.04
2019-03-24T19:13:21.497Z,41.54
2019-03-24T19:15:52.095Z,42.17
2019-03-24T19:18:22.755Z,42.69
2019-03-24T19:20:53.250Z,42.74
2019-03-24T19:23:23.882Z,43.24
2019-03-24T19:25:54.449Z,43.38
2019-03-24T19:28:25.063Z,43.63
2019-03-24T19:30:55.570Z,43.77
2019-03-24T19:33:26.136Z,43.21
2019-03-24T19:35:56.807Z,42.66
2019-03-24T19:38:27.497Z,42.16
2019-03-24T19:40:59.585Z,41.53
2019-03-24T19:43:30.505Z,41.90
2019-03-24T19:46:02.179Z,42.50
2019-03-24T19:48:32.711Z,43.04
2019-03-24T19:51:03.207Z,43.32
2019-03-24T19:53:33.745Z,42.83
2019-03-24T19:56:04.238Z,43.03
2019-03-24T19:58:34.848Z,43.30
2019-03-24T20:01:05.709Z,43.71
2019-03-24T20:03:36.326Z,44.09
2019-03-24T20:06:06.852Z,43.62
2019-03-24T20:08:37.465Z,43.31
2019-03-24T20:11:08.004Z,43.45
2019-03-24T20:13:39.272Z,43.71
2019-03-24T20:16:10.165Z,43.90
2019-03-24T20:18:43.370Z,43.87
2019-03-24T20:21:14.516Z,44.13
2019-03-24T20:23:45.567Z,44.47
2019-03-24T20:32:38.500Z,45.15
2019-03-24T20:35:10.763Z,45.76
2019-03-24T20:37:41.296Z,45.26
2019-03-24T20:40:12.498Z,45.90
2019-03-24T20:42:43.360Z,45.83
2019-03-24T20:45:14.770Z,45.88
2019-03-24T20:47:45.658Z,46.13
2019-03-24T20:50:16.731Z,46.19
2019-03-24T20:52:47.229Z,46.22
2019-03-24T20:55:20.469Z,47.50
2019-03-24T20:57:52.433Z,47.18
2019-03-24T21:00:35.065Z,47.09
2019-03-24T21:03:06.111Z,47.01
2019-03-24T21:05:38.172Z,47.82
2019-03-24T21:08:11.004Z,47.87
2019-03-24T21:10:42.168Z,48.62
2019-03-24T21:13:12.688Z,49.91
2019-03-24T21:15:43.366Z,49.91
2019-03-24T21:18:13.783Z,50.53
2019-03-24T21:20:44.388Z,50.83
2019-03-24T21:23:14.903Z,52.13
2019-03-24T21:25:45.525Z,52.14
2019-03-24T21:28:16.086Z,51.88
2019-03-24T21:30:46.645Z,55.45
2019-03-24T21:33:18.255Z,56.55
2019-03-24T21:35:48.782Z,57.14
2019-03-24T21:38:19.368Z,61.48
2019-03-24T21:40:49.900Z,60.16
2019-03-24T21:43:20.439Z,64.19
2019-03-24T21:45:50.987Z,64.33
2019-03-24T21:48:21.530Z,62.63
2019-03-24T21:50:52.064Z,66.57
2019-03-24T21:53:22.509Z,68.39
2019-03-24T21:55:52.976Z,63.60
2019-03-24T21:58:23.500Z,62.67
2019-03-24T22:00:54.088Z,64.23
2019-03-24T22:03:24.542Z,66.65
2019-03-24T22:05:55.458Z,69.27
2019-03-24T22:08:25.913Z,67.82
2019-03-24T22:10:56.482Z,69.72
2019-03-24T22:13:27.055Z,70.27
2019-03-24T22:15:57.578Z,70.67
2019-03-24T22:18:28.150Z,71.00
2019-03-24T22:20:58.631Z,72.22
2019-03-24T22:23:29.165Z,67.88
2019-03-24T22:25:59.712Z,69.23
2019-03-24T22:28:30.220Z,68.70
2019-03-24T22:31:00.745Z,71.99
2019-03-24T22:33:31.272Z,71.08
2019-03-24T22:36:01.750Z,72.75
2019-03-24T22:38:32.312Z,73.81
2019-03-24T22:41:02.794Z,75.57
2019-03-24T22:43:33.286Z,77.81
2019-03-24T22:46:03.838Z,77.71
2019-03-24T22:48:34.301Z,74.75
2019-03-24T22:51:08.016Z,77.53
2019-03-24T22:53:40.177Z,78.05
2019-03-24T22:56:10.654Z,78.21
2019-03-24T22:58:41.270Z,77.48
2019-03-24T23:01:11.943Z,78.81
2019-03-24T23:03:42.492Z,78.04
2019-03-24T23:06:13.064Z,77.94
2019-03-24T23:08:43.639Z,79.24
2019-03-24T23:11:14.271Z,79.32
2019-03-24T23:13:44.842Z,82.74
2019-03-24T23:16:16.903Z,82.93
2019-03-24T23:18:48.992Z,81.26
2019-03-24T23:21:19.598Z,81.00
2019-03-24T23:23:50.206Z,84.23
2019-03-24T23:26:20.771Z,84.39
2019-03-24T23:28:51.280Z,84.23
2019-03-24T23:31:23.010Z,83.39
2019-03-24T23:33:53.523Z,84.78
2019-03-24T23:36:24.072Z,83.23
2019-03-24T23:38:57.194Z,83.27
2019-03-24T23:41:26.860Z,84.47
2019-03-24T23:43:59.218Z,85.29
2019-03-24T23:46:29.847Z,85.97
2019-03-24T23:49:00.518Z,86.27
2019-03-24T23:51:31.456Z,86.15
2019-03-24T23:54:01.965Z,87.20
2019-03-24T23:56:32.573Z,87.43
2019-03-24T23:59:03.155Z,88.28
